createdAt,value
2019-03-10T00:00:40.244Z,70.57
2019-03-10T00:03:12.209Z,69.69
2019-03-10T00:05:44.203Z,69.42
2019-03-10T00:08:16.109Z,69.26
2019-03-10T00:10:48.075Z,68.29
2019-03-10T00:13:19.980Z,68.58
2019-03-10T00:15:51.885Z,68.82
2019-03-10T00:18:23.802Z,68.76
2019-03-10T00:20:56.846Z,69.35
2019-03-10T00:23:28.822Z,69.32
2019-03-10T00:26:01.838Z,70.14
2019-03-10T00:28:33.765Z,70.25
2019-03-10T00:31:05.662Z,71.12
2019-03-10T00:33:37.504Z,71.90
2019-03-10T00:36:09.440Z,72.72
2019-03-10T00:39:07.619Z,73.24
2019-03-10T00:42:18.854Z,74.17
2019-03-10T00:45:58.839Z,74.71
2019-03-10T00:49:28.388Z,75.86
2019-03-10T00:52:32.055Z,76.02
2019-03-10T00:55:04.013Z,77.11
2019-03-10T00:57:35.896Z,77.88
2019-03-10T01:00:19.296Z,78.02
2019-03-10T01:02:51.268Z,77.77
2019-03-10T01:05:23.090Z,77.62
2019-03-10T01:07:55.055Z,77.77
2019-03-10T01:10:26.904Z,78.64
2019-03-10T01:12:58.989Z,78.78
2019-03-10T01:15:31.273Z,78.96
2019-03-10T01:18:04.271Z,79.20
2019-03-10T01:20:36.356Z,79.47
2019-03-10T01:23:08.162Z,79.57
2019-03-10T01:25:40.007Z,80.51
2019-03-10T01:28:11.912Z,80.87
2019-03-10T01:30:56.051Z,81.16
2019-03-10T01:34:10.986Z,80.87
2019-03-10T01:36:42.915Z,81.17
2019-03-10T01:39:14.911Z,81.16
2019-03-10T01:41:46.811Z,81.62
2019-03-10T01:44:18.726Z,81.54
2019-03-10T01:46:50.596Z,81.92
2019-03-10T01:49:24.978Z,81.14
2019-03-10T01:51:56.831Z,81.01
2019-03-10T01:54:28.697Z,81.26
2019-03-10T01:57:00.527Z,80.82
2019-03-10T01:59:32.391Z,81.38
2019-03-10T02:02:04.179Z,80.65
2019-03-10T02:04:36.014Z,81.10
2019-03-10T02:07:07.826Z,80.87
2019-03-10T02:09:39.751Z,80.85
2019-03-10T02:12:11.717Z,80.69
2019-03-10T02:14:43.627Z,80.83
2019-03-10T02:17:15.616Z,80.08
2019-03-10T02:19:47.480Z,79.61
2019-03-10T02:22:19.337Z,79.53
2019-03-10T02:24:51.279Z,79.86
2019-03-10T02:27:23.180Z,79.44
2019-03-10T02:29:55.026Z,79.63
2019-03-10T02:32:26.877Z,79.80
2019-03-10T02:34:58.732Z,79.77
2019-03-10T02:37:30.643Z,79.11
2019-03-10T02:40:02.482Z,79.02
2019-03-10T02:42:35.531Z,79.22
2019-03-10T02:45:08.121Z,78.67
2019-03-10T02:47:40.055Z,78.39
2019-03-10T02:50:12.407Z,78.59
2019-03-10T02:52:45.424Z,78.50
2019-03-10T02:55:17.305Z,78.47
2019-03-10T02:57:49.195Z,78.28
2019-03-10T03:00:21.115Z,78.52
2019-03-10T03:02:52.974Z,78.46
2019-03-10T03:05:24.801Z,78.45
2019-03-10T03:07:56.655Z,78.70
2019-03-10T03:10:28.490Z,78.72
2019-03-10T03:13:00.350Z,79.10
2019-03-10T03:15:32.168Z,78.85
2019-03-10T03:18:04.048Z,79.27
2019-03-10T03:20:35.957Z,79.71
2019-03-10T03:23:07.873Z,79.56
2019-03-10T03:25:39.711Z,79.24
2019-03-10T03:28:11.754Z,79.33
2019-03-10T03:30:43.568Z,79.20
2019-03-10T03:33:15.496Z,79.14
2019-03-10T03:35:59.889Z,78.96
2019-03-10T03:38:48.852Z,78.87
2019-03-10T03:41:21.608Z,79.03
2019-03-10T03:43:53.466Z,78.93
2019-03-10T03:46:25.257Z,79.49
2019-03-10T03:48:57.156Z,79.38
2019-03-10T03:51:29.018Z,79.41
2019-03-10T03:54:00.942Z,79.01
2019-03-10T03:56:32.750Z,78.95
2019-03-10T03:59:04.680Z,78.98
2019-03-10T04:01:51.020Z,78.92
2019-03-10T04:04:22.862Z,78.86
2019-03-10T04:06:55.112Z,78.60
2019-03-10T04:09:27.057Z,77.94
2019-03-10T04:11:58.995Z,77.84
2019-03-10T04:14:30.822Z,77.72
2019-03-10T04:17:02.625Z,77.67
2019-03-10T04:19:34.453Z,77.83
2019-03-10T04:22:06.372Z,77.77
2019-03-10T04:24:38.299Z,78.39
2019-03-10T04:27:10.242Z,78.38
2019-03-10T04:29:42.106Z,78.03
2019-03-10T04:32:14.020Z,78.32
2019-03-10T04:34:45.884Z,78.24
2019-03-10T04:37:17.686Z,78.75
2019-03-10T04:39:49.488Z,78.77
2019-03-10T04:42:21.425Z,78.62
2019-03-10T04:44:53.314Z,78.78
2019-03-10T04:47:25.173Z,78.54
2019-03-10T04:49:57.067Z,78.29
2019-03-10T04:52:28.923Z,78.63
2019-03-10T04:55:19.622Z,78.84
2019-03-10T04:58:16.400Z,78.87
2019-03-10T05:00:51.126Z,78.97
2019-03-10T05:03:22.984Z,79.24
2019-03-10T05:05:54.841Z,78.94
2019-03-10T05:08:26.746Z,78.78
2019-03-10T05:10:58.706Z,78.67
2019-03-10T05:13:31.666Z,78.35
2019-03-10T05:16:03.496Z,78.27
2019-03-10T05:18:35.362Z,78.49
2019-03-10T05:21:07.178Z,78.51
2019-03-10T05:23:44.018Z,78.41
2019-03-10T05:26:17.096Z,77.92
2019-03-10T05:28:50.110Z,78.22
2019-03-10T05:31:22.024Z,78.59
2019-03-10T05:33:53.880Z,78.49
2019-03-10T05:36:25.770Z,78.89
2019-03-10T05:38:57.654Z,79.08
2019-03-10T05:41:29.479Z,79.35
2019-03-10T05:44:01.341Z,79.23
2019-03-10T05:46:33.203Z,78.90
2019-03-10T05:49:05.014Z,79.17
2019-03-10T05:51:36.908Z,79.37
2019-03-10T05:54:09.694Z,79.04
2019-03-10T05:56:41.527Z,78.21
2019-03-10T05:59:13.402Z,77.90
2019-03-10T06:01:45.268Z,77.40
2019-03-10T06:04:17.164Z,76.73
2019-03-10T06:06:49.077Z,76.87
2019-03-10T06:09:21.121Z,76.43
2019-03-10T06:11:53.110Z,75.83
2019-03-10T06:14:24.979Z,75.37
2019-03-10T06:16:56.971Z,75.26
2019-03-10T06:19:30.693Z,75.20
2019-03-10T06:22:03.903Z,74.85
2019-03-10T06:24:35.835Z,74.69
2019-03-10T06:27:09.605Z,74.48
2019-03-10T06:29:44.825Z,74.18
2019-03-10T06:32:18.342Z,74.16
2019-03-10T06:34:55.324Z,74.48
2019-03-10T06:37:27.789Z,74.50
2019-03-10T06:39:59.852Z,74.47
2019-03-10T06:42:31.701Z,74.48
2019-03-10T06:45:03.705Z,74.47
2019-03-10T06:47:35.793Z,74.54
2019-03-10T06:50:09.130Z,74.50
2019-03-10T06:52:41.177Z,74.45
2019-03-10T06:55:13.335Z,74.19
2019-03-10T06:57:48.369Z,73.82
2019-03-10T07:00:20.531Z,73.24
2019-03-10T07:02:52.577Z,72.76
2019-03-10T07:05:24.481Z,72.39
2019-03-10T07:07:58.137Z,72.36
2019-03-10T07:10:32.753Z,72.04
2019-03-10T07:13:05.614Z,71.63
2019-03-10T07:15:40.299Z,70.84
2019-03-10T07:18:14.852Z,70.72
2019-03-10T07:20:46.697Z,69.87
2019-03-10T07:23:20.234Z,69.18
2019-03-10T07:26:08.062Z,68.55
2019-03-10T07:28:57.723Z,68.01
2019-03-10T07:31:44.764Z,67.68
2019-03-10T07:34:50.764Z,68.08
2019-03-10T07:37:53.792Z,67.45
2019-03-10T07:40:44.491Z,66.75
2019-03-10T07:43:33.810Z,66.47
2019-03-10T07:46:23.185Z,66.48
2019-03-10T07:49:29.000Z,65.68
2019-03-10T07:52:35.166Z,65.64
2019-03-10T07:55:32.148Z,65.03
2019-03-10T07:58:17.638Z,63.60
2019-03-10T08:01:07.009Z,63.12
2019-03-10T08:04:06.893Z,63.02
2019-03-10T08:06:49.204Z,61.99
2019-03-10T08:09:46.648Z,61.72
2019-03-10T08:12:26.816Z,61.70
2019-03-10T08:15:16.569Z,61.00
2019-03-10T08:18:14.633Z,60.69
2019-03-10T08:20:58.623Z,63.11
2019-03-10T08:24:00.554Z,62.04
2019-03-10T08:27:01.160Z,61.71
2019-03-10T08:48:40.944Z,63.12
2019-03-10T08:51:30.453Z,63.05
2019-03-10T08:54:16.818Z,62.44
2019-03-10T08:57:04.931Z,61.57
2019-03-10T08:59:57.164Z,59.80
2019-03-10T09:03:00.307Z,58.16
2019-03-10T09:05:51.186Z,56.16
2019-03-10T09:08:40.637Z,56.02
2019-03-10T09:11:35.620Z,55.46
2019-03-10T09:14:35.533Z,54.21
2019-03-10T09:17:29.304Z,54.35
2019-03-10T09:20:25.800Z,55.23
2019-03-10T09:23:09.836Z,55.32
2019-03-10T09:26:03.388Z,55.02
2019-03-10T09:28:44.872Z,55.98
2019-03-10T09:31:44.532Z,56.84
2019-03-10T09:34:28.064Z,55.98
2019-03-10T09:37:21.834Z,57.70
2019-03-10T09:40:22.600Z,57.48
2019-03-10T09:43:11.868Z,56.73
2019-03-10T09:45:56.004Z,57.29
2019-03-10T09:48:45.517Z,55.75
2019-03-10T09:51:38.404Z,55.77
2019-03-10T09:54:26.355Z,55.14
2019-03-10T09:57:13.890Z,54.92
2019-03-10T10:00:07.601Z,55.62
2019-03-10T10:03:10.922Z,55.84
2019-03-10T10:06:04.595Z,56.30
2019-03-10T10:08:54.589Z,57.86
2019-03-10T10:12:12.899Z,57.52
2019-03-10T10:14:52.848Z,59.25
2019-03-10T10:17:44.056Z,60.06
2019-03-10T10:20:24.032Z,62.40
2019-03-10T10:23:14.349Z,62.93
2019-03-10T10:26:10.915Z,62.23
2019-03-10T10:28:59.783Z,64.40
2019-03-10T10:31:56.757Z,65.99
2019-03-10T10:34:40.659Z,66.49
2019-03-10T10:37:26.569Z,64.65
2019-03-10T10:40:16.583Z,63.89
2019-03-10T10:43:05.705Z,65.15
2019-03-10T10:46:05.451Z,66.55
2019-03-10T10:48:58.866Z,67.37
2019-03-10T10:51:54.651Z,66.75
2019-03-10T10:55:00.747Z,67.46
2019-03-10T10:57:51.591Z,67.51
2019-03-10T11:00:58.555Z,67.25
2019-03-10T11:04:05.016Z,66.38
2019-03-10T11:07:00.232Z,66.93
2019-03-10T11:10:04.234Z,68.67
2019-03-10T11:13:31.801Z,68.35
2019-03-10T11:16:20.319Z,66.75
2019-03-10T11:19:04.859Z,67.07
2019-03-10T11:21:58.901Z,67.85
2019-03-10T11:24:36.143Z,67.30
2019-03-10T11:27:26.657Z,67.33
2019-03-10T11:30:22.119Z,65.80
2019-03-10T11:33:18.834Z,65.78
2019-03-10T11:36:02.888Z,67.24
2019-03-10T11:38:44.647Z,66.53
2019-03-10T11:41:45.409Z,66.54
2019-03-10T11:44:36.576Z,66.62
2019-03-10T11:47:30.801Z,67.44
2019-03-10T11:50:21.089Z,69.90
2019-03-10T11:53:26.367Z,70.50
2019-03-10T12:01:04.503Z,72.13
2019-03-10T12:04:06.469Z,71.61
2019-03-10T12:07:10.633Z,72.63
2019-03-10T12:09:45.517Z,72.65
2019-03-10T12:12:23.505Z,72.61
2019-03-10T12:15:01.128Z,73.34
2019-03-10T12:22:19.728Z,73.58
2019-03-10T12:25:28.872Z,72.53
2019-03-10T12:27:57.336Z,71.76
2019-03-10T12:30:37.610Z,71.83
2019-03-10T12:33:09.715Z,71.35
2019-03-10T12:35:46.104Z,72.49
2019-03-10T12:38:21.061Z,73.42
2019-03-10T12:40:53.663Z,72.66
2019-03-10T12:43:28.908Z,71.82
2019-03-10T12:46:03.952Z,71.25
2019-03-10T12:48:40.378Z,71.33
2019-03-10T12:51:19.175Z,69.66
2019-03-10T12:53:54.570Z,68.42
2019-03-10T12:56:30.552Z,66.70
2019-03-10T12:59:04.633Z,66.54
2019-03-10T13:01:39.598Z,66.69
2019-03-10T13:04:13.238Z,66.34
2019-03-10T13:06:47.459Z,68.11
2019-03-10T13:09:19.550Z,69.93
2019-03-10T13:11:52.781Z,71.94
2019-03-10T13:14:24.959Z,73.17
2019-03-10T13:16:57.163Z,73.73
2019-03-10T13:19:31.913Z,73.73
2019-03-10T13:22:04.031Z,73.74
2019-03-10T13:24:37.800Z,72.49
2019-03-10T13:27:10.410Z,72.77
2019-03-10T13:29:44.355Z,72.48
2019-03-10T13:32:16.546Z,71.64
2019-03-10T13:34:48.712Z,71.15
2019-03-10T13:37:53.963Z,71.34
2019-03-10T13:40:21.665Z,70.89
2019-03-10T13:42:58.430Z,70.50
2019-03-10T13:45:39.537Z,71.96
2019-03-10T13:48:18.338Z,74.26
2019-03-10T13:50:58.918Z,74.02
2019-03-10T13:53:55.662Z,76.67
2019-03-10T14:12:44.040Z,78.58
2019-03-10T14:15:28.039Z,81.14
2019-03-10T14:18:35.038Z,83.12
2019-03-10T14:21:18.130Z,84.70
2019-03-10T14:23:53.539Z,84.62
2019-03-10T14:26:34.929Z,86.67
2019-03-10T14:29:14.339Z,86.58
2019-03-10T14:31:57.722Z,88.26
2019-03-10T14:34:30.967Z,89.08
2019-03-10T14:37:13.640Z,88.47
2019-03-10T14:39:55.360Z,88.39
2019-03-10T14:42:37.007Z,88.56
2019-03-10T14:45:17.864Z,87.02
2019-03-10T14:47:53.203Z,87.23
2019-03-10T14:50:25.557Z,85.47
2019-03-10T14:53:37.713Z,84.40
2019-03-10T14:56:05.745Z,85.31
2019-03-10T14:58:43.347Z,86.08
2019-03-10T15:01:26.720Z,89.33
2019-03-10T15:04:04.760Z,90.10
2019-03-10T15:06:39.819Z,91.17
2019-03-10T15:09:19.935Z,92.75
2019-03-10T15:12:02.539Z,93.12
2019-03-10T15:14:49.177Z,93.16
2019-03-10T15:17:29.017Z,94.00
2019-03-10T15:20:08.801Z,94.30
2019-03-10T15:22:41.313Z,94.54
2019-03-10T15:25:14.554Z,93.45
2019-03-10T15:27:50.305Z,93.63
2019-03-10T15:30:22.506Z,93.74
2019-03-10T15:33:22.951Z,93.99
2019-03-10T15:35:56.820Z,94.23
2019-03-10T15:38:28.964Z,94.92
2019-03-10T15:41:01.225Z,94.86
2019-03-10T15:43:44.197Z,95.57
2019-03-10T15:46:19.691Z,95.83
2019-03-10T15:48:51.819Z,95.96
2019-03-10T15:51:23.885Z,95.31
2019-03-10T15:54:19.695Z,95.98
2019-03-10T15:56:59.429Z,95.49
2019-03-10T15:59:35.838Z,95.24
2019-03-10T16:02:07.058Z,95.16
2019-03-10T16:04:40.436Z,95.69
2019-03-10T16:07:20.389Z,95.99
2019-03-10T16:09:56.007Z,96.35
2019-03-10T16:12:28.571Z,97.00
2019-03-10T16:15:15.174Z,96.17
2019-03-10T16:17:49.530Z,96.25
2019-03-10T16:20:23.521Z,96.28
2019-03-10T16:22:57.869Z,96.64
2019-03-10T16:25:43.121Z,96.50
2019-03-10T16:28:28.110Z,96.66
2019-03-10T16:31:02.246Z,94.53
2019-03-10T16:33:34.834Z,94.39
2019-03-10T16:36:14.669Z,93.35
2019-03-10T16:38:49.568Z,95.15
2019-03-10T16:41:23.803Z,95.83
2019-03-10T16:44:49.875Z,96.37
2019-03-10T16:47:36.862Z,96.17
2019-03-10T16:50:27.369Z,95.41
2019-03-10T16:59:48.337Z,96.18
2019-03-10T17:02:20.731Z,97.16
2019-03-10T17:04:52.925Z,97.54
2019-03-10T17:07:26.275Z,96.29
2019-03-10T17:09:58.518Z,95.85
2019-03-10T17:12:56.092Z,95.40
2019-03-10T17:15:28.338Z,95.01
2019-03-10T17:18:01.030Z,95.09
2019-03-10T17:20:40.689Z,94.32
2019-03-10T17:23:19.112Z,95.51
2019-03-10T17:25:56.629Z,94.22
2019-03-10T17:28:38.005Z,94.50
2019-03-10T17:31:28.034Z,95.62
2019-03-10T17:34:00.536Z,94.98
2019-03-10T17:36:40.884Z,95.19
2019-03-10T17:39:24.610Z,94.74
2019-03-10T17:42:00.243Z,94.53
2019-03-10T17:44:41.230Z,94.50
2019-03-10T17:47:26.808Z,94.79
2019-03-10T17:50:00.522Z,94.90
2019-03-10T17:52:41.727Z,95.32
2019-03-10T17:55:19.426Z,95.34
2019-03-10T17:58:12.432Z,96.42
2019-03-10T18:00:46.695Z,98.48
2019-03-10T18:03:19.901Z,97.34
2019-03-10T18:05:56.168Z,96.93
2019-03-10T18:08:31.855Z,97.00
2019-03-10T18:11:06.933Z,96.66
2019-03-10T18:13:40.153Z,96.75
2019-03-10T18:16:12.360Z,97.08
2019-03-10T18:18:49.704Z,97.68
2019-03-10T18:21:30.540Z,99.12
2019-03-10T18:24:12.748Z,100.00
2019-03-10T18:26:52.786Z,100.00
2019-03-10T18:29:31.406Z,100.00
2019-03-10T18:32:03.723Z,100.00
2019-03-10T18:34:41.252Z,97.91
2019-03-10T18:37:14.072Z,96.38
2019-03-10T18:39:47.715Z,96.52
2019-03-10T18:42:33.624Z,95.76
2019-03-10T18:45:09.149Z,95.02
2019-03-10T18:47:43.085Z,95.50
2019-03-10T18:50:17.064Z,96.00
2019-03-10T18:52:49.635Z,94.42
2019-03-10T18:55:25.816Z,94.04
2019-03-10T18:57:58.822Z,93.18
2019-03-10T19:00:31.072Z,91.20
2019-03-10T19:03:03.159Z,89.77
2019-03-10T19:05:42.484Z,89.48
2019-03-10T19:08:12.236Z,88.73
2019-03-10T19:10:47.707Z,88.84
2019-03-10T19:13:19.873Z,89.75
2019-03-10T19:15:55.550Z,90.62
2019-03-10T19:18:31.636Z,91.86
2019-03-10T19:21:05.674Z,90.79
2019-03-10T19:23:41.593Z,88.76
2019-03-10T19:26:28.562Z,85.00
2019-03-10T19:28:55.538Z,84.67
2019-03-10T19:31:36.278Z,83.02
2019-03-10T19:34:15.539Z,84.34
2019-03-10T19:36:56.589Z,86.86
2019-03-10T19:39:31.084Z,88.87
2019-03-10T19:42:28.974Z,88.96
2019-03-10T19:45:01.519Z,89.20
2019-03-10T19:47:34.925Z,88.43
2019-03-10T19:50:10.236Z,88.68
2019-03-10T19:52:42.934Z,89.21
2019-03-10T19:55:16.352Z,91.07
2019-03-10T19:57:49.376Z,91.11
2019-03-10T20:00:22.482Z,91.09
2019-03-10T20:02:56.366Z,90.16
2019-03-10T20:05:28.991Z,89.72
2019-03-10T20:08:04.051Z,89.91
2019-03-10T20:10:37.227Z,89.89
2019-03-10T20:13:09.680Z,90.70
2019-03-10T20:15:43.803Z,88.79
2019-03-10T20:18:15.873Z,89.05
2019-03-10T20:20:48.031Z,90.24
2019-03-10T20:23:20.114Z,88.57
2019-03-10T20:29:39.728Z,85.64
2019-03-10T20:32:14.151Z,85.37
2019-03-10T20:34:46.692Z,85.06
2019-03-10T20:37:18.927Z,83.93
2019-03-10T20:39:51.503Z,83.36
2019-03-10T20:42:25.339Z,83.83
2019-03-10T20:44:57.659Z,83.45
2019-03-10T20:47:29.767Z,83.65
2019-03-10T20:50:01.946Z,83.18
2019-03-10T20:52:35.599Z,83.04
2019-03-10T20:55:07.814Z,82.42
2019-03-10T20:57:40.193Z,81.36
2019-03-10T21:00:17.755Z,80.38
2019-03-10T21:02:51.355Z,82.35
2019-03-10T21:05:23.471Z,85.11
2019-03-10T21:07:58.675Z,89.30
2019-03-10T21:10:30.814Z,94.26
2019-03-10T21:13:05.364Z,93.24
2019-03-10T21:15:40.629Z,96.37
2019-03-10T21:18:12.456Z,96.87
2019-03-10T21:20:50.966Z,97.71
2019-03-10T21:23:23.607Z,98.97
2019-03-10T21:25:55.742Z,99.64
2019-03-10T21:28:34.742Z,99.90
2019-03-10T21:31:11.241Z,100.00
2019-03-10T21:33:43.329Z,100.00
2019-03-10T21:36:21.218Z,100.00
2019-03-10T21:38:58.305Z,100.00
2019-03-10T21:41:38.602Z,100.00
2019-03-10T21:44:26.227Z,100.00
2019-03-10T21:46:53.852Z,100.00
2019-03-10T21:49:32.198Z,100.00
2019-03-10T21:52:07.019Z,100.00
2019-03-10T21:54:40.859Z,100.00
2019-03-10T21:57:15.476Z,100.00
2019-03-10T21:59:48.852Z,100.00
2019-03-10T22:02:20.923Z,100.00
2019-03-10T22:04:54.538Z,100.00
2019-03-10T22:07:43.604Z,100.00
2019-03-10T22:10:26.331Z,100.00
2019-03-10T22:12:54.286Z,100.00
2019-03-10T22:15:28.935Z,100.00
2019-03-10T22:18:06.474Z,100.00
2019-03-10T22:20:45.009Z,100.00
2019-03-10T22:23:20.166Z,100.00
2019-03-10T22:26:00.650Z,100.00
2019-03-10T22:28:43.224Z,100.00
2019-03-10T22:31:17.048Z,100.00
2019-03-10T22:33:56.445Z,100.00
2019-03-10T22:36:36.770Z,100.00
2019-03-10T22:39:11.496Z,100.00
2019-03-10T22:41:45.158Z,100.00
2019-03-10T22:44:19.441Z,100.00
2019-03-10T22:46:52.654Z,100.00
2019-03-10T22:49:24.800Z,100.00
2019-03-10T22:51:56.741Z,100.00
2019-03-10T22:54:28.786Z,100.00
2019-03-10T22:57:04.707Z,100.00
2019-03-10T22:59:37.989Z,100.00
2019-03-10T23:02:09.930Z,100.00
2019-03-10T23:04:46.536Z,100.00
2019-03-10T23:07:18.541Z,100.00
2019-03-10T23:09:50.478Z,100.00
2019-03-10T23:12:24.227Z,100.00
2019-03-10T23:14:57.665Z,100.00
2019-03-10T23:17:34.564Z,100.00
2019-03-10T23:20:09.756Z,100.00
2019-03-10T23:22:41.710Z,100.00
2019-03-10T23:25:14.637Z,100.00
2019-03-10T23:27:46.585Z,100.00
2019-03-10T23:30:18.749Z,100.00
2019-03-10T23:32:51.242Z,100.00
2019-03-10T23:35:23.393Z,100.00
2019-03-10T23:37:55.285Z,100.00
2019-03-10T23:40:27.173Z,100.00
2019-03-10T23:42:59.249Z,100.00
2019-03-10T23:45:31.138Z,100.00
2019-03-10T23:48:02.985Z,100.00
2019-03-10T23:50:34.917Z,100.00
2019-03-10T23:53:14.097Z,100.00
2019-03-10T23:55:47.669Z,100.00
2019-03-10T23:58:19.714Z,100.00
